createdAt,value
2023-04-19T00:01:25.245Z,97022.58
2023-04-19T00:03:53.778Z,97018.64
2023-04-19T00:06:22.277Z,97015.21
2023-04-19T00:08:50.655Z,97014.90
2023-04-19T00:11:18.732Z,97011.84
2023-04-19T00:13:46.840Z,97010.23
2023-04-19T00:16:17.548Z,97009.34
2023-04-19T00:18:46.838Z,97008.14
2023-04-19T00:21:15.929Z,97009.37
2023-04-19T00:23:44.054Z,97009.77
2023-04-19T00:26:15.714Z,97007.39
2023-04-19T00:28:44.577Z,97010.71
2023-04-19T00:31:15.529Z,97012.26
2023-04-19T00:33:43.756Z,97012.77
2023-04-19T00:36:11.804Z,97012.35
2023-04-19T00:38:40.915Z,97011.34
2023-04-19T00:41:11.304Z,97009.70
2023-04-19T00:43:39.742Z,97007.21
2023-04-19T00:46:08.146Z,97008.45
2023-04-19T00:48:36.691Z,97009.95
2023-04-19T00:51:05.686Z,97009.40
2023-04-19T00:53:34.573Z,97006.98
2023-04-19T00:56:05.302Z,97002.57
2023-04-19T00:58:33.454Z,96993.98
2023-04-19T01:01:01.814Z,96991.17
2023-04-19T01:03:30.477Z,96986.10
2023-04-19T01:05:58.793Z,96989.59
2023-04-19T01:08:26.841Z,96987.46
2023-04-19T01:10:55.611Z,96988.13
2023-04-19T01:13:23.707Z,96986.89
2023-04-19T01:15:52.101Z,96986.01
2023-04-19T01:18:24.566Z,96985.21
2023-04-19T01:20:53.040Z,96983.08
2023-04-19T01:23:21.484Z,96978.98
2023-04-19T01:25:50.752Z,96976.71
2023-04-19T01:28:18.950Z,96973.01
2023-04-19T01:30:49.292Z,96973.80
2023-04-19T01:33:17.528Z,96974.48
2023-04-19T01:35:45.847Z,96972.92
2023-04-19T01:38:15.342Z,96970.57
2023-04-19T01:40:44.042Z,96967.20
2023-04-19T01:43:17.293Z,96966.77
2023-04-19T01:45:45.914Z,96964.19
2023-04-19T01:48:14.190Z,96966.02
2023-04-19T01:50:42.532Z,96964.30
2023-04-19T01:53:12.297Z,96967.58
2023-04-19T01:55:40.347Z,96965.66
2023-04-19T01:58:08.515Z,96964.83
2023-04-19T02:00:36.752Z,96959.64
2023-04-19T02:03:05.782Z,96964.64
2023-04-19T02:05:34.478Z,96967.42
2023-04-19T02:08:02.775Z,96963.88
2023-04-19T02:10:33.176Z,96965.48
2023-04-19T02:13:01.353Z,96963.65
2023-04-19T02:15:29.396Z,96965.63
2023-04-19T02:18:00.368Z,96967.72
2023-04-19T02:20:28.640Z,96965.75
2023-04-19T02:22:56.834Z,96964.11
2023-04-19T02:25:25.141Z,96962.84
2023-04-19T02:27:53.985Z,96960.30
2023-04-19T02:30:23.036Z,96962.39
2023-04-19T02:32:51.767Z,96957.86
2023-04-19T02:35:20.226Z,96957.00
2023-04-19T02:37:48.324Z,96953.13
2023-04-19T02:40:23.861Z,96950.77
2023-04-19T02:42:55.941Z,96945.44
2023-04-19T02:45:24.315Z,96942.93
2023-04-19T02:47:52.845Z,96940.02
2023-04-19T02:50:21.383Z,96934.15
2023-04-19T02:52:53.242Z,96933.70
2023-04-19T02:55:22.508Z,96934.15
2023-04-19T02:57:56.247Z,96931.55
2023-04-19T03:00:24.418Z,96930.03
2023-04-19T03:03:04.694Z,96924.73
2023-04-19T03:05:46.815Z,96919.34
2023-04-19T03:08:36.426Z,96918.86
2023-04-19T03:11:16.704Z,96919.44
2023-04-19T03:13:46.012Z,96917.27
2023-04-19T03:16:15.028Z,96916.15
2023-04-19T03:18:43.794Z,96916.16
2023-04-19T03:21:12.686Z,96917.66
2023-04-19T03:23:55.617Z,96915.84
2023-04-19T03:26:24.143Z,96914.00
2023-04-19T03:28:54.738Z,96917.55
2023-04-19T03:31:45.940Z,96914.97
2023-04-19T03:34:15.220Z,96916.84
2023-04-19T03:36:46.460Z,96920.92
2023-04-19T03:39:14.692Z,96921.20
2023-04-19T03:41:46.831Z,96920.83
2023-04-19T03:44:22.674Z,96919.02
2023-04-19T03:46:50.956Z,96918.45
2023-04-19T03:49:22.568Z,96920.01
2023-04-19T03:51:55.694Z,96917.97
2023-04-19T03:54:23.771Z,96917.72
2023-04-19T03:56:52.049Z,96917.25
2023-04-19T03:59:20.209Z,96915.30
2023-04-19T04:01:48.916Z,96917.83
2023-04-19T04:04:17.820Z,96915.32
2023-04-19T04:06:46.988Z,96913.44
2023-04-19T04:09:17.718Z,96916.31
2023-04-19T04:11:46.036Z,96916.69
2023-04-19T04:14:14.772Z,96918.06
2023-04-19T04:16:43.311Z,96916.56
2023-04-19T04:19:11.539Z,96913.75
2023-04-19T04:21:41.492Z,96915.09
2023-04-19T04:24:10.060Z,96914.20
2023-04-19T04:26:43.505Z,96913.54
2023-04-19T04:29:18.785Z,96909.51
2023-04-19T04:31:47.194Z,96909.79
2023-04-19T04:34:17.374Z,96911.10
2023-04-19T04:36:51.610Z,96912.88
2023-04-19T04:39:20.751Z,96914.11
2023-04-19T04:41:50.226Z,96911.83
2023-04-19T04:44:18.460Z,96908.67
2023-04-19T04:46:47.094Z,96910.33
2023-04-19T04:49:18.123Z,96909.81
2023-04-19T04:51:46.309Z,96912.40
2023-04-19T04:54:15.158Z,96913.57
2023-04-19T04:56:43.704Z,96912.02
2023-04-19T04:59:11.920Z,96912.25
2023-04-19T05:01:43.159Z,96911.98
2023-04-19T05:04:11.911Z,96909.77
2023-04-19T05:06:41.318Z,96906.85
2023-04-19T05:09:10.583Z,96905.41
2023-04-19T05:11:39.068Z,96901.42
2023-04-19T05:14:07.395Z,96899.63
2023-04-19T05:16:36.234Z,96901.75
2023-04-19T05:19:05.016Z,96900.55
2023-04-19T05:21:36.347Z,96902.46
2023-04-19T05:24:06.188Z,96903.30
2023-04-19T05:26:35.627Z,96904.08
2023-04-19T05:29:04.373Z,96901.83
2023-04-19T05:31:41.838Z,96901.02
2023-04-19T05:34:14.689Z,96898.77
2023-04-19T05:36:43.463Z,96895.98
2023-04-19T05:39:12.105Z,96892.82
2023-04-19T05:41:43.796Z,96892.16
2023-04-19T05:44:11.985Z,96894.20
2023-04-19T05:46:40.949Z,96895.36
2023-04-19T05:49:10.970Z,96895.48
2023-04-19T05:51:57.891Z,96895.35
2023-04-19T05:54:36.228Z,96895.61
2023-04-19T05:57:05.391Z,96897.29
2023-04-19T05:59:33.724Z,96898.98
2023-04-19T06:02:02.551Z,96895.71
2023-04-19T06:04:34.075Z,96895.17
2023-04-19T06:07:04.509Z,96894.30
2023-04-19T06:09:34.461Z,96892.98
2023-04-19T06:12:02.746Z,96895.86
2023-04-19T06:14:31.218Z,96894.96
2023-04-19T06:16:59.488Z,96897.52
2023-04-19T06:19:27.690Z,96898.13
2023-04-19T06:21:55.732Z,96899.30
2023-04-19T06:24:23.973Z,96898.08
2023-04-19T06:26:52.386Z,96899.14
2023-04-19T06:29:21.802Z,96904.46
2023-04-19T06:31:50.346Z,96905.04
2023-04-19T06:34:19.110Z,96906.58
2023-04-19T06:36:47.544Z,96907.15
2023-04-19T06:39:15.823Z,96905.59
2023-04-19T06:41:43.910Z,96907.48
2023-04-19T06:44:17.737Z,96910.91
2023-04-19T06:46:46.284Z,96911.23
2023-04-19T06:49:14.633Z,96910.48
2023-04-19T06:51:42.735Z,96909.42
2023-04-19T06:54:10.932Z,96907.98
2023-04-19T06:56:49.884Z,96907.56
2023-04-19T06:59:20.078Z,96906.70
2023-04-19T07:01:48.893Z,96907.30
2023-04-19T07:04:18.108Z,96905.33
2023-04-19T07:06:50.097Z,96904.69
2023-04-19T07:09:18.395Z,96904.86
2023-04-19T07:11:48.030Z,96906.27
2023-04-19T07:14:17.037Z,96906.71
2023-04-19T07:16:49.357Z,96907.88
2023-04-19T07:19:20.609Z,96907.74
2023-04-19T07:21:49.302Z,96909.52
2023-04-19T07:24:18.137Z,96910.25
2023-04-19T07:26:46.775Z,96913.05
2023-04-19T07:29:15.253Z,96913.17
2023-04-19T07:31:43.850Z,96913.90
2023-04-19T07:34:12.414Z,96915.07
2023-04-19T07:36:40.798Z,96914.08
2023-04-19T07:39:11.345Z,96915.36
2023-04-19T07:41:39.603Z,96914.21
2023-04-19T07:44:07.994Z,96915.45
2023-04-19T07:46:36.174Z,96918.99
2023-04-19T07:49:04.740Z,96917.21
2023-04-19T07:51:35.698Z,96914.89
2023-04-19T07:54:07.907Z,96916.89
2023-04-19T07:56:36.229Z,96911.91
2023-04-19T07:59:08.360Z,96913.46
2023-04-19T08:01:38.127Z,96913.22
2023-04-19T08:04:06.725Z,96908.54
2023-04-19T08:06:39.884Z,96910.15
2023-04-19T08:09:08.530Z,96910.48
2023-04-19T08:11:36.663Z,96911.64
2023-04-19T08:14:15.076Z,96910.46
2023-04-19T08:19:22.108Z,96905.51
2023-04-19T08:21:50.552Z,96905.25
2023-04-19T08:24:18.724Z,96904.06
2023-04-19T08:26:54.875Z,96897.73
2023-04-19T08:29:23.442Z,96893.71
2023-04-19T08:31:51.739Z,96893.55
2023-04-19T08:34:19.908Z,96891.67
2023-04-19T08:37:00.213Z,96892.03
2023-04-19T08:39:35.035Z,96888.06
2023-04-19T08:42:13.194Z,96886.77
2023-04-19T08:45:17.129Z,96884.64
2023-04-19T08:47:52.479Z,96881.65
2023-04-19T08:50:33.502Z,96883.30
2023-04-19T08:53:23.839Z,96883.64
2023-04-19T08:58:45.840Z,96888.83
2023-04-19T09:04:04.885Z,96882.95
2023-04-19T09:06:41.768Z,96883.71
2023-04-19T09:09:35.384Z,96880.39
2023-04-19T09:12:18.368Z,96877.98
2023-04-19T09:17:19.298Z,96872.34
2023-04-19T09:19:49.547Z,96868.98
2023-04-19T09:22:18.828Z,96868.81
2023-04-19T09:25:27.682Z,96867.58
2023-04-19T09:27:37.283Z,96861.31
2023-04-19T09:30:06.732Z,96860.58
2023-04-19T09:32:47.610Z,96854.66
2023-04-19T09:35:16.456Z,96853.77
2023-04-19T09:38:05.371Z,96849.70
2023-04-19T09:40:35.419Z,96847.85
2023-04-19T09:45:46.647Z,96850.89
2023-04-19T09:48:15.306Z,96848.52
2023-04-19T09:51:03.638Z,96847.70
2023-04-19T09:53:34.789Z,96847.19
2023-04-19T09:56:04.343Z,96847.20
2023-04-19T10:01:14.118Z,96843.27
2023-04-19T10:03:47.111Z,96844.10
2023-04-19T10:08:50.524Z,96841.48
2023-04-19T10:11:22.120Z,96843.52
2023-04-19T10:13:54.754Z,96836.95
2023-04-19T10:16:23.286Z,96837.59
2023-04-19T10:18:52.974Z,96836.63
2023-04-19T10:21:21.889Z,96834.41
2023-04-19T10:23:50.779Z,96834.82
2023-04-19T10:26:18.904Z,96835.44
2023-04-19T10:28:48.888Z,96834.73
2023-04-19T10:31:21.428Z,96829.13
2023-04-19T10:33:51.599Z,96832.09
2023-04-19T10:36:21.293Z,96833.45
2023-04-19T10:38:55.695Z,96834.73
2023-04-19T10:41:43.948Z,96836.33
2023-04-19T10:44:12.222Z,96835.44
2023-04-19T10:46:41.033Z,96828.89
2023-04-19T10:49:10.296Z,96829.73
2023-04-19T10:51:51.131Z,96830.23
2023-04-19T10:54:31.085Z,96826.11
2023-04-19T10:57:02.884Z,96825.69
2023-04-19T10:59:35.624Z,96824.86
2023-04-19T11:02:25.089Z,96820.08
2023-04-19T11:04:53.630Z,96821.13
2023-04-19T11:07:22.456Z,96820.55
2023-04-19T11:09:51.936Z,96819.27
2023-04-19T11:12:21.342Z,96819.95
2023-04-19T11:14:53.610Z,96820.04
2023-04-19T11:17:27.013Z,96818.78
2023-04-19T11:20:02.367Z,96816.44
2023-04-19T11:22:36.245Z,96821.79
2023-04-19T11:25:12.374Z,96822.14
2023-04-19T11:27:43.225Z,96818.23
2023-04-19T11:30:29.642Z,96813.23
2023-04-19T11:32:57.963Z,96808.48
2023-04-19T11:35:32.764Z,96810.27
2023-04-19T11:38:01.816Z,96813.33
2023-04-19T11:40:30.737Z,96810.80
2023-04-19T11:43:03.653Z,96807.63
2023-04-19T11:45:39.848Z,96810.10
2023-04-19T11:48:27.373Z,96808.90
2023-04-19T11:50:59.314Z,96808.70
2023-04-19T11:53:29.201Z,96805.15
2023-04-19T11:56:09.087Z,96806.19
2023-04-19T11:58:38.362Z,96805.11
2023-04-19T12:01:10.769Z,96803.20
2023-04-19T12:03:45.179Z,96800.27
2023-04-19T12:06:25.729Z,96800.54
2023-04-19T12:08:55.965Z,96801.86
2023-04-19T12:11:26.855Z,96798.61
2023-04-19T12:14:12.000Z,96799.60
2023-04-19T12:16:40.177Z,96795.95
2023-04-19T12:19:26.113Z,96787.33
2023-04-19T12:22:10.300Z,96788.26
2023-04-19T12:24:40.169Z,96788.39
2023-04-19T12:27:08.955Z,96787.63
2023-04-19T12:29:40.101Z,96783.42
2023-04-19T12:32:11.025Z,96782.91
2023-04-19T12:34:39.764Z,96785.04
2023-04-19T12:37:07.790Z,96788.72
2023-04-19T12:39:36.588Z,96784.24
2023-04-19T12:42:06.362Z,96786.67
2023-04-19T12:44:34.482Z,96786.61
2023-04-19T12:47:02.748Z,96783.75
2023-04-19T12:49:31.142Z,96786.19
2023-04-19T12:51:59.623Z,96787.00
2023-04-19T12:54:27.678Z,96786.72
2023-04-19T12:56:57.636Z,96789.77
2023-04-19T12:59:25.863Z,96789.68
2023-04-19T13:01:54.167Z,96789.80
2023-04-19T13:04:22.917Z,96790.29
2023-04-19T13:06:51.520Z,96794.16
2023-04-19T13:09:19.816Z,96789.58
2023-04-19T13:11:47.894Z,96790.38
2023-04-19T13:14:16.643Z,96793.61
2023-04-19T13:16:54.545Z,96791.86
2023-04-19T13:19:32.151Z,96790.13
2023-04-19T13:22:00.653Z,96790.59
2023-04-19T13:24:28.715Z,96790.83
2023-04-19T13:27:00.398Z,96791.41
2023-04-19T13:29:29.359Z,96791.70
2023-04-19T13:31:57.495Z,96793.52
2023-04-19T13:34:26.359Z,96796.86
2023-04-19T13:36:55.515Z,96798.60
2023-04-19T13:39:23.599Z,96796.66
2023-04-19T13:41:51.777Z,96797.09
2023-04-19T13:44:20.250Z,96801.21
2023-04-19T13:46:48.487Z,96801.08
2023-04-19T13:49:18.412Z,96805.03
2023-04-19T13:51:51.104Z,96805.95
2023-04-19T13:54:20.250Z,96806.12
2023-04-19T13:56:51.427Z,96803.58
2023-04-19T13:59:21.387Z,96802.02
2023-04-19T14:01:49.580Z,96806.45
2023-04-19T14:04:18.260Z,96810.02
2023-04-19T14:06:46.856Z,96810.74
2023-04-19T14:09:15.838Z,96806.10
2023-04-19T14:11:44.066Z,96810.88
2023-04-19T14:14:12.169Z,96813.15
2023-04-19T14:16:40.949Z,96811.03
2023-04-19T14:19:09.332Z,96810.66
2023-04-19T14:21:37.489Z,96811.65
2023-04-19T14:24:06.404Z,96812.17
2023-04-19T14:26:34.502Z,96814.75
2023-04-19T14:29:02.701Z,96813.95
2023-04-19T14:31:31.561Z,96812.52
2023-04-19T14:34:00.008Z,96807.48
2023-04-19T14:36:28.248Z,96806.87
2023-04-19T14:38:56.374Z,96805.02
2023-04-19T14:41:25.468Z,96806.95
2023-04-19T14:43:57.137Z,96808.98
2023-04-19T14:46:25.260Z,96805.25
2023-04-19T14:48:53.886Z,96804.17
2023-04-19T14:51:22.006Z,96803.46
2023-04-19T14:53:50.496Z,96804.47
2023-04-19T14:56:27.819Z,96809.79
2023-04-19T14:58:56.171Z,96806.71
2023-04-19T15:01:24.504Z,96812.46
2023-04-19T15:03:52.900Z,96810.58
2023-04-19T15:06:21.303Z,96809.45
2023-04-19T15:08:49.769Z,96816.36
2023-04-19T15:11:18.060Z,96817.08
2023-04-19T15:13:46.431Z,96818.96
2023-04-19T15:16:17.151Z,96818.84
2023-04-19T15:18:45.312Z,96824.71
2023-04-19T15:21:13.558Z,96828.64
2023-04-19T15:23:41.694Z,96827.70
2023-04-19T15:26:10.111Z,96828.27
2023-04-19T15:28:48.406Z,96829.36
2023-04-19T15:31:16.809Z,96832.81
2023-04-19T15:33:44.938Z,96834.21
2023-04-19T15:36:13.458Z,96837.33
2023-04-19T15:39:22.252Z,96838.60
2023-04-19T15:41:50.529Z,96839.14
2023-04-19T15:44:19.263Z,96840.70
2023-04-19T15:46:47.797Z,96839.07
2023-04-19T15:49:16.854Z,96839.28
2023-04-19T15:51:45.615Z,96840.84
2023-04-19T15:54:16.827Z,96841.73
2023-04-19T15:56:45.261Z,96842.41
2023-04-19T15:59:13.970Z,96839.50
2023-04-19T16:01:42.649Z,96836.60
2023-04-19T16:04:11.679Z,96838.59
2023-04-19T16:06:52.078Z,96835.94
2023-04-19T16:09:23.094Z,96837.61
2023-04-19T16:11:51.359Z,96834.33
2023-04-19T16:14:22.274Z,96836.48
2023-04-19T16:16:50.465Z,96834.84
2023-04-19T16:19:19.886Z,96833.35
2023-04-19T16:21:49.325Z,96839.17
2023-04-19T16:24:17.901Z,96842.56
2023-04-19T16:26:46.056Z,96844.69
2023-04-19T16:29:14.090Z,96845.17
2023-04-19T16:31:42.558Z,96842.56
2023-04-19T16:34:11.082Z,96840.45
2023-04-19T16:36:44.864Z,96839.14
2023-04-19T16:39:13.214Z,96842.70
2023-04-19T16:41:41.774Z,96841.77
2023-04-19T16:44:11.178Z,96840.85
2023-04-19T16:46:39.821Z,96845.41
2023-04-19T16:49:10.598Z,96847.55
2023-04-19T16:51:38.768Z,96850.95
2023-04-19T16:54:06.995Z,96851.07
2023-04-19T16:56:36.488Z,96851.48
2023-04-19T16:59:05.139Z,96853.10
2023-04-19T17:01:33.332Z,96855.52
2023-04-19T17:04:02.066Z,96856.88
2023-04-19T17:06:30.326Z,96856.52
2023-04-19T17:08:58.544Z,96860.64
2023-04-19T17:11:26.793Z,96862.58
2023-04-19T17:13:59.463Z,96866.79
2023-04-19T17:16:27.590Z,96869.20
2023-04-19T17:18:56.541Z,96872.93
2023-04-19T17:21:24.914Z,96873.52
2023-04-19T17:23:53.151Z,96875.79
2023-04-19T17:26:21.496Z,96878.86
2023-04-19T17:28:49.638Z,96878.46
2023-04-19T17:31:18.070Z,96880.73
2023-04-19T17:33:46.401Z,96882.20
2023-04-19T17:36:14.572Z,96885.75
2023-04-19T17:38:42.732Z,96889.63
2023-04-19T17:41:17.298Z,96889.42
2023-04-19T17:43:46.480Z,96894.23
2023-04-19T17:46:15.151Z,96901.45
2023-04-19T17:48:43.321Z,96905.55
2023-04-19T17:51:11.501Z,96909.86
2023-04-19T17:53:39.537Z,96910.05
2023-04-19T17:56:07.567Z,96912.28
2023-04-19T17:58:36.651Z,96918.66
2023-04-19T18:01:06.649Z,96925.23
2023-04-19T18:03:35.053Z,96928.26
2023-04-19T18:06:03.529Z,96925.16
2023-04-19T18:08:32.124Z,96925.33
2023-04-19T18:11:01.196Z,96927.27
2023-04-19T18:13:29.190Z,96931.48
2023-04-19T18:15:57.394Z,96934.17
2023-04-19T18:18:25.631Z,96937.35
2023-04-19T18:20:53.790Z,96939.89
2023-04-19T18:23:22.379Z,96937.43
2023-04-19T18:25:54.766Z,96942.02
2023-04-19T18:28:23.499Z,96943.19
2023-04-19T18:30:51.713Z,96942.55
2023-04-19T18:33:21.281Z,96944.80
2023-04-19T18:35:49.549Z,96946.08
2023-04-19T18:38:17.595Z,96943.19
2023-04-19T18:40:46.294Z,96942.80
2023-04-19T18:43:16.577Z,96945.64
2023-04-19T18:45:44.747Z,96948.90
2023-04-19T18:48:13.283Z,96950.60
2023-04-19T18:50:41.380Z,96951.38
2023-04-19T18:53:09.784Z,96951.25
2023-04-19T18:55:38.061Z,96952.40
2023-04-19T18:58:07.540Z,96950.16
2023-04-19T19:00:35.948Z,96949.62
2023-04-19T19:03:04.347Z,96954.05
2023-04-19T19:05:32.980Z,96952.09
2023-04-19T19:08:01.382Z,96947.91
2023-04-19T19:11:06.252Z,96950.14
2023-04-19T19:13:23.303Z,96947.29
2023-04-19T19:15:51.512Z,96946.12
2023-04-19T19:18:19.731Z,96945.20
2023-04-19T19:20:51.343Z,96946.47
2023-04-19T19:23:20.507Z,96945.04
2023-04-19T19:25:54.659Z,96945.61
2023-04-19T19:28:30.439Z,96946.83
2023-04-19T19:30:58.681Z,96945.59
2023-04-19T19:33:28.905Z,96944.95
2023-04-19T19:36:08.415Z,96944.26
2023-04-19T19:38:36.900Z,96945.80
2023-04-19T19:43:37.568Z,96947.31
2023-04-19T19:46:09.567Z,96948.79
2023-04-19T19:48:42.612Z,96945.25
2023-04-19T19:53:42.758Z,96954.95
2023-04-19T19:56:31.301Z,96952.08
2023-04-19T19:58:59.909Z,96948.47
2023-04-19T20:01:28.510Z,96951.15
2023-04-19T20:03:59.865Z,96954.07
2023-04-19T20:08:59.781Z,96957.98
2023-04-19T20:11:28.402Z,96959.06
2023-04-19T20:13:56.843Z,96962.27
2023-04-19T20:16:25.579Z,96962.23
2023-04-19T20:18:54.542Z,96962.29
2023-04-19T20:21:22.861Z,96964.19
2023-04-19T20:23:51.175Z,96962.52
2023-04-19T20:26:19.721Z,96967.25
2023-04-19T20:28:48.126Z,96969.58
2023-04-19T20:31:16.379Z,96968.42
2023-04-19T20:33:47.561Z,96966.16
2023-04-19T20:36:16.503Z,96966.92
2023-04-19T20:38:47.968Z,96965.55
2023-04-19T20:41:16.971Z,96969.41
2023-04-19T20:43:45.248Z,96969.98
2023-04-19T20:46:22.769Z,96969.72
2023-04-19T20:48:51.025Z,96971.81
2023-04-19T20:51:19.030Z,96973.14
2023-04-19T20:53:47.352Z,96974.95
2023-04-19T20:56:15.559Z,96980.38
2023-04-19T20:58:45.356Z,96979.06
2023-04-19T21:01:17.238Z,96982.21
2023-04-19T21:03:46.113Z,96981.60
2023-04-19T21:06:14.779Z,96982.45
2023-04-19T21:08:42.955Z,96985.67
2023-04-19T21:11:11.448Z,96986.90
2023-04-19T21:13:39.818Z,96986.79
2023-04-19T21:16:08.235Z,96986.88
2023-04-19T21:18:36.472Z,96986.73
2023-04-19T21:21:04.661Z,96986.73
2023-04-19T21:23:32.829Z,96987.98
2023-04-19T21:26:02.736Z,96990.63
2023-04-19T21:28:34.733Z,96992.27
2023-04-19T21:31:03.334Z,96989.08
2023-04-19T21:33:31.467Z,96989.03
2023-04-19T21:36:24.766Z,96991.33
2023-04-19T21:38:56.274Z,96994.04
2023-04-19T21:41:27.111Z,97001.15
2023-04-19T21:43:57.901Z,97001.73
2023-04-19T21:46:26.482Z,97002.27
2023-04-19T21:48:56.036Z,97007.27
2023-04-19T21:51:24.557Z,97014.20
2023-04-19T21:53:52.706Z,97013.54
2023-04-19T21:56:20.746Z,97009.34
2023-04-19T21:58:48.810Z,97009.41
2023-04-19T22:01:16.852Z,97009.98
2023-04-19T22:03:45.613Z,97009.64
2023-04-19T22:06:17.296Z,97012.02
2023-04-19T22:08:47.974Z,97014.75
2023-04-19T22:11:20.123Z,97015.60
2023-04-19T22:13:48.235Z,97019.83
2023-04-19T22:16:16.961Z,97019.86
2023-04-19T22:18:45.241Z,97016.27
2023-04-19T22:21:14.017Z,97018.77
2023-04-19T22:23:42.135Z,97016.51
2023-04-19T22:26:10.570Z,97018.35
2023-04-19T22:28:39.158Z,97018.45
2023-04-19T22:31:07.232Z,97016.92
2023-04-19T22:33:35.706Z,97022.38
2023-04-19T22:36:04.802Z,97025.58
2023-04-19T22:38:33.956Z,97024.34
2023-04-19T22:41:02.100Z,97022.16
2023-04-19T22:43:30.446Z,97024.89
2023-04-19T22:45:59.019Z,97021.01
2023-04-19T22:48:30.086Z,97021.45
2023-04-19T22:51:07.618Z,97023.10
2023-04-19T22:53:37.299Z,97021.95
2023-04-19T22:56:06.183Z,97025.38
2023-04-19T22:58:34.347Z,97028.70
2023-04-19T23:01:03.382Z,97026.41
2023-04-19T23:03:31.498Z,97026.63
2023-04-19T23:06:00.917Z,97027.80
2023-04-19T23:08:31.037Z,97020.77
2023-04-19T23:10:59.211Z,97025.52
2023-04-19T23:13:27.344Z,97020.30
2023-04-19T23:15:55.796Z,97018.05
2023-04-19T23:18:24.348Z,97016.51
2023-04-19T23:20:52.475Z,97017.79
2023-04-19T23:23:20.771Z,97015.59
2023-04-19T23:25:49.382Z,97019.95
2023-04-19T23:28:17.861Z,97020.86
2023-04-19T23:30:49.212Z,97017.17
2023-04-19T23:33:20.254Z,97017.27
2023-04-19T23:35:48.326Z,97016.02
2023-04-19T23:38:16.766Z,97015.39
2023-04-19T23:40:46.008Z,97015.38
2023-04-19T23:43:14.495Z,97011.65
2023-04-19T23:45:42.715Z,97009.42
2023-04-19T23:48:20.415Z,97008.52
2023-04-19T23:50:48.727Z,97007.70
2023-04-19T23:53:17.126Z,97007.04
2023-04-19T23:55:45.587Z,97007.98
2023-04-19T23:58:13.760Z,97007.85
